BUD weather

Budapest Liszt Ferenc International Airport
Budapest, Pest, Hungary

Public forecast

Using degrees Celsius for public forecast. Weather courtesy of forecast.io.

METAR (pilot weather report)

Retrieved 2019/03/23 22:30 UTC (0 seconds ago):

LHBP 232230Z VRB02KT CAVOK 06/05 Q1024 NOSIG

TAF (pilot weather forecast)

Retrieved 2019/03/23 18:27 UTC (4 hours ago):

TAF TAF LHBP 231715Z 2318/2418 VRB03KT CAVOK BECMG 2411/2413 28007KT TEMPO 2411/2415 SCT045